sensor_id;sensor_type;location;lat;lon;timestamp;pressure;altitude;pressure_sealevel;temperature
35582;BMP180;21687;48.900;9.188;2023-07-09T00:01:15;98812.00;;;20.90
35582;BMP180;21687;48.900;9.188;2023-07-09T00:03:44;98824.00;;;20.90
35582;BMP180;21687;48.900;9.188;2023-07-09T00:06:12;98815.00;;;20.80
35582;BMP180;21687;48.900;9.188;2023-07-09T00:08:43;98814.00;;;20.80
35582;BMP180;21687;48.900;9.188;2023-07-09T00:11:10;98812.00;;;20.70
35582;BMP180;21687;48.900;9.188;2023-07-09T00:13:37;98818.00;;;20.70
35582;BMP180;21687;48.900;9.188;2023-07-09T00:16:15;98817.00;;;20.60
35582;BMP180;21687;48.900;9.188;2023-07-09T00:18:45;98806.00;;;20.60
35582;BMP180;21687;48.900;9.188;2023-07-09T00:21:18;98815.00;;;20.60
35582;BMP180;21687;48.900;9.188;2023-07-09T00:23:46;98819.00;;;20.50
35582;BMP180;21687;48.900;9.188;2023-07-09T00:26:16;98824.00;;;20.50
35582;BMP180;21687;48.900;9.188;2023-07-09T00:28:43;98817.00;;;20.40
35582;BMP180;21687;48.900;9.188;2023-07-09T00:31:15;98821.00;;;20.40
35582;BMP180;21687;48.900;9.188;2023-07-09T00:33:42;98815.00;;;20.30
35582;BMP180;21687;48.900;9.188;2023-07-09T00:36:16;98816.00;;;20.30
35582;BMP180;21687;48.900;9.188;2023-07-09T00:38:44;98821.00;;;20.30
35582;BMP180;21687;48.900;9.188;2023-07-09T00:41:19;98822.00;;;20.20
35582;BMP180;21687;48.900;9.188;2023-07-09T00:43:48;98819.00;;;20.20
35582;BMP180;21687;48.900;9.188;2023-07-09T00:49:02;98826.00;;;20.10
35582;BMP180;21687;48.900;9.188;2023-07-09T00:51:36;98820.00;;;20.10
35582;BMP180;21687;48.900;9.188;2023-07-09T00:54:20;98829.00;;;20.00
35582;BMP180;21687;48.900;9.188;2023-07-09T00:56:50;98827.00;;;20.00
35582;BMP180;21687;48.900;9.188;2023-07-09T00:59:22;98833.00;;;20.00
35582;BMP180;21687;48.900;9.188;2023-07-09T01:01:51;98835.00;;;20.00
35582;BMP180;21687;48.900;9.188;2023-07-09T01:04:20;98836.00;;;19.90
35582;BMP180;21687;48.900;9.188;2023-07-09T01:06:55;98832.00;;;19.90
35582;BMP180;21687;48.900;9.188;2023-07-09T01:09:22;98839.00;;;19.90
35582;BMP180;21687;48.900;9.188;2023-07-09T01:11:49;98831.00;;;19.90
35582;BMP180;21687;48.900;9.188;2023-07-09T01:14:18;98830.00;;;19.90
35582;BMP180;21687;48.900;9.188;2023-07-09T01:16:54;98825.00;;;19.80
35582;BMP180;21687;48.900;9.188;2023-07-09T01:19:25;98826.00;;;19.80
35582;BMP180;21687;48.900;9.188;2023-07-09T01:21:56;98830.00;;;19.70
35582;BMP180;21687;48.900;9.188;2023-07-09T01:27:27;98827.00;;;19.60
35582;BMP180;21687;48.900;9.188;2023-07-09T01:29:55;98826.00;;;19.60
35582;BMP180;21687;48.900;9.188;2023-07-09T01:32:22;98829.00;;;19.60
35582;BMP180;21687;48.900;9.188;2023-07-09T01:34:53;98830.00;;;19.60
35582;BMP180;21687;48.900;9.188;2023-07-09T01:37:25;98832.00;;;19.50
35582;BMP180;21687;48.900;9.188;2023-07-09T01:39:52;98821.00;;;19.60
35582;BMP180;21687;48.900;9.188;2023-07-09T01:42:21;98814.00;;;19.50
35582;BMP180;21687;48.900;9.188;2023-07-09T01:44:50;98829.00;;;19.50
35582;BMP180;21687;48.900;9.188;2023-07-09T01:47:17;98822.00;;;19.50
35582;BMP180;21687;48.900;9.188;2023-07-09T01:49:44;98820.00;;;19.50
35582;BMP180;21687;48.900;9.188;2023-07-09T01:52:15;98829.00;;;19.50
35582;BMP180;21687;48.900;9.188;2023-07-09T01:54:42;98826.00;;;19.40
35582;BMP180;21687;48.900;9.188;2023-07-09T02:00:36;98828.00;;;19.40
35582;BMP180;21687;48.900;9.188;2023-07-09T02:03:03;98832.00;;;19.40
35582;BMP180;21687;48.900;9.188;2023-07-09T02:05:34;98829.00;;;19.50
35582;BMP180;21687;48.900;9.188;2023-07-09T02:08:01;98828.00;;;19.50
35582;BMP180;21687;48.900;9.188;2023-07-09T02:10:27;98821.00;;;19.40
35582;BMP180;21687;48.900;9.188;2023-07-09T02:12:54;98830.00;;;19.40
35582;BMP180;21687;48.900;9.188;2023-07-09T02:15:20;98833.00;;;19.50
35582;BMP180;21687;48.900;9.188;2023-07-09T02:17:47;98830.00;;;19.50
35582;BMP180;21687;48.900;9.188;2023-07-09T02:20:14;98832.00;;;19.50
35582;BMP180;21687;48.900;9.188;2023-07-09T02:22:42;98837.00;;;19.40
35582;BMP180;21687;48.900;9.188;2023-07-09T02:25:08;98827.00;;;19.40
35582;BMP180;21687;48.900;9.188;2023-07-09T02:27:36;98831.00;;;19.40
35582;BMP180;21687;48.900;9.188;2023-07-09T02:30:04;98826.00;;;19.50
35582;BMP180;21687;48.900;9.188;2023-07-09T02:32:31;98836.00;;;19.50
35582;BMP180;21687;48.900;9.188;2023-07-09T02:34:57;98838.00;;;19.40
35582;BMP180;21687;48.900;9.188;2023-07-09T02:37:25;98836.00;;;19.30
35582;BMP180;21687;48.900;9.188;2023-07-09T02:39:52;98838.00;;;19.20
35582;BMP180;21687;48.900;9.188;2023-07-09T02:42:20;98845.00;;;19.20
35582;BMP180;21687;48.900;9.188;2023-07-09T02:44:48;98849.00;;;19.20
35582;BMP180;21687;48.900;9.188;2023-07-09T02:47:15;98838.00;;;19.10
35582;BMP180;21687;48.900;9.188;2023-07-09T02:49:41;98848.00;;;19.00
35582;BMP180;21687;48.900;9.188;2023-07-09T02:52:08;98848.00;;;19.00
35582;BMP180;21687;48.900;9.188;2023-07-09T02:54:34;98849.00;;;18.90
35582;BMP180;21687;48.900;9.188;2023-07-09T02:57:00;98848.00;;;18.80
35582;BMP180;21687;48.900;9.188;2023-07-09T02:59:27;98854.00;;;18.70
35582;BMP180;21687;48.900;9.188;2023-07-09T03:01:56;98850.00;;;18.70
35582;BMP180;21687;48.900;9.188;2023-07-09T03:04:22;98854.00;;;18.60
35582;BMP180;21687;48.900;9.188;2023-07-09T03:06:49;98862.00;;;18.50
35582;BMP180;21687;48.900;9.188;2023-07-09T03:09:16;98858.00;;;18.50
35582;BMP180;21687;48.900;9.188;2023-07-09T03:11:42;98858.00;;;18.40
35582;BMP180;21687;48.900;9.188;2023-07-09T03:14:09;98862.00;;;18.40
35582;BMP180;21687;48.900;9.188;2023-07-09T03:16:36;98860.00;;;18.30
35582;BMP180;21687;48.900;9.188;2023-07-09T03:19:03;98845.00;;;18.30
35582;BMP180;21687;48.900;9.188;2023-07-09T03:21:30;98854.00;;;18.20
35582;BMP180;21687;48.900;9.188;2023-07-09T03:23:57;98843.00;;;18.10
35582;BMP180;21687;48.900;9.188;2023-07-09T03:26:24;98840.00;;;18.10
35582;BMP180;21687;48.900;9.188;2023-07-09T03:28:52;98853.00;;;18.20
35582;BMP180;21687;48.900;9.188;2023-07-09T03:31:19;98848.00;;;18.20
35582;BMP180;21687;48.900;9.188;2023-07-09T03:33:48;98848.00;;;18.10
35582;BMP180;21687;48.900;9.188;2023-07-09T03:36:15;98850.00;;;18.10
35582;BMP180;21687;48.900;9.188;2023-07-09T03:38:42;98852.00;;;18.10
35582;BMP180;21687;48.900;9.188;2023-07-09T03:41:09;98861.00;;;18.20
35582;BMP180;21687;48.900;9.188;2023-07-09T03:43:35;98859.00;;;18.20
35582;BMP180;21687;48.900;9.188;2023-07-09T03:46:02;98860.00;;;18.20
35582;BMP180;21687;48.900;9.188;2023-07-09T03:48:28;98866.00;;;18.20
35582;BMP180;21687;48.900;9.188;2023-07-09T03:50:55;98866.00;;;18.20
35582;BMP180;21687;48.900;9.188;2023-07-09T03:53:22;98862.00;;;18.20
35582;BMP180;21687;48.900;9.188;2023-07-09T03:55:53;98870.00;;;18.40
35582;BMP180;21687;48.900;9.188;2023-07-09T03:58:20;98874.00;;;18.60
35582;BMP180;21687;48.900;9.188;2023-07-09T04:00:46;98867.00;;;18.70
35582;BMP180;21687;48.900;9.188;2023-07-09T04:03:12;98867.00;;;18.90
35582;BMP180;21687;48.900;9.188;2023-07-09T04:05:39;98866.00;;;19.00
35582;BMP180;21687;48.900;9.188;2023-07-09T04:08:06;98865.00;;;19.10
35582;BMP180;21687;48.900;9.188;2023-07-09T04:10:32;98873.00;;;19.20
35582;BMP180;21687;48.900;9.188;2023-07-09T04:12:59;98867.00;;;19.60
35582;BMP180;21687;48.900;9.188;2023-07-09T04:15:26;98867.00;;;19.90
35582;BMP180;21687;48.900;9.188;2023-07-09T04:17:53;98867.00;;;20.10
35582;BMP180;21687;48.900;9.188;2023-07-09T04:20:19;98872.00;;;20.40
35582;BMP180;21687;48.900;9.188;2023-07-09T04:22:46;98879.00;;;20.70
35582;BMP180;21687;48.900;9.188;2023-07-09T04:25:15;98872.00;;;20.90
35582;BMP180;21687;48.900;9.188;2023-07-09T04:27:42;98867.00;;;21.10
35582;BMP180;21687;48.900;9.188;2023-07-09T04:30:13;98871.00;;;21.40
35582;BMP180;21687;48.900;9.188;2023-07-09T04:32:44;98877.00;;;21.70
35582;BMP180;21687;48.900;9.188;2023-07-09T04:35:13;98876.00;;;21.80
35582;BMP180;21687;48.900;9.188;2023-07-09T04:37:40;98883.00;;;22.20
35582;BMP180;21687;48.900;9.188;2023-07-09T04:40:08;98882.00;;;22.30
35582;BMP180;21687;48.900;9.188;2023-07-09T04:42:37;98880.00;;;22.60
35582;BMP180;21687;48.900;9.188;2023-07-09T04:45:05;98882.00;;;22.60
35582;BMP180;21687;48.900;9.188;2023-07-09T04:47:32;98885.00;;;22.90
35582;BMP180;21687;48.900;9.188;2023-07-09T04:49:58;98885.00;;;23.30
35582;BMP180;21687;48.900;9.188;2023-07-09T04:52:25;98888.00;;;23.60
35582;BMP180;21687;48.900;9.188;2023-07-09T04:54:53;98887.00;;;23.80
35582;BMP180;21687;48.900;9.188;2023-07-09T04:57:20;98888.00;;;24.00
35582;BMP180;21687;48.900;9.188;2023-07-09T04:59:46;98885.00;;;24.00
35582;BMP180;21687;48.900;9.188;2023-07-09T05:02:13;98894.00;;;24.00
35582;BMP180;21687;48.900;9.188;2023-07-09T05:04:39;98890.00;;;24.00
35582;BMP180;21687;48.900;9.188;2023-07-09T05:07:06;98895.00;;;24.10
35582;BMP180;21687;48.900;9.188;2023-07-09T05:09:33;98899.00;;;24.30
35582;BMP180;21687;48.900;9.188;2023-07-09T05:12:00;98903.00;;;24.60
35582;BMP180;21687;48.900;9.188;2023-07-09T05:14:28;98902.00;;;24.70
35582;BMP180;21687;48.900;9.188;2023-07-09T05:16:54;98903.00;;;25.00
35582;BMP180;21687;48.900;9.188;2023-07-09T05:19:20;98901.00;;;25.50
35582;BMP180;21687;48.900;9.188;2023-07-09T05:21:47;98902.00;;;25.50
35582;BMP180;21687;48.900;9.188;2023-07-09T05:24:13;98905.00;;;25.80
35582;BMP180;21687;48.900;9.188;2023-07-09T05:26:40;98916.00;;;25.90
35582;BMP180;21687;48.900;9.188;2023-07-09T05:29:07;98909.00;;;25.90
35582;BMP180;21687;48.900;9.188;2023-07-09T05:31:37;98910.00;;;25.90
35582;BMP180;21687;48.900;9.188;2023-07-09T05:34:03;98915.00;;;26.00
35582;BMP180;21687;48.900;9.188;2023-07-09T05:36:30;98911.00;;;26.30
35582;BMP180;21687;48.900;9.188;2023-07-09T05:38:57;98921.00;;;26.30
35582;BMP180;21687;48.900;9.188;2023-07-09T05:41:24;98928.00;;;26.40
35582;BMP180;21687;48.900;9.188;2023-07-09T05:43:51;98921.00;;;26.60
35582;BMP180;21687;48.900;9.188;2023-07-09T05:46:19;98918.00;;;27.00
35582;BMP180;21687;48.900;9.188;2023-07-09T05:48:45;98924.00;;;27.10
35582;BMP180;21687;48.900;9.188;2023-07-09T05:51:12;98927.00;;;27.30
35582;BMP180;21687;48.900;9.188;2023-07-09T05:53:39;98915.00;;;27.60
35582;BMP180;21687;48.900;9.188;2023-07-09T05:56:06;98915.00;;;27.50
35582;BMP180;21687;48.900;9.188;2023-07-09T05:58:33;98918.00;;;27.80
35582;BMP180;21687;48.900;9.188;2023-07-09T06:00:59;98914.00;;;28.20
35582;BMP180;21687;48.900;9.188;2023-07-09T06:03:27;98924.00;;;28.40
35582;BMP180;21687;48.900;9.188;2023-07-09T06:05:54;98917.00;;;28.70
35582;BMP180;21687;48.900;9.188;2023-07-09T06:08:21;98927.00;;;28.80
35582;BMP180;21687;48.900;9.188;2023-07-09T06:10:59;98921.00;;;29.00
35582;BMP180;21687;48.900;9.188;2023-07-09T06:13:26;98935.00;;;28.40
35582;BMP180;21687;48.900;9.188;2023-07-09T06:15:54;98927.00;;;28.80
35582;BMP180;21687;48.900;9.188;2023-07-09T06:18:23;98933.00;;;29.10
35582;BMP180;21687;48.900;9.188;2023-07-09T06:20:51;98939.00;;;29.30
35582;BMP180;21687;48.900;9.188;2023-07-09T06:23:23;98934.00;;;29.80
35582;BMP180;21687;48.900;9.188;2023-07-09T06:25:50;98939.00;;;30.00
35582;BMP180;21687;48.900;9.188;2023-07-09T06:28:25;98940.00;;;30.10
35582;BMP180;21687;48.900;9.188;2023-07-09T06:30:52;98933.00;;;30.40
35582;BMP180;21687;48.900;9.188;2023-07-09T06:33:19;98937.00;;;30.10
35582;BMP180;21687;48.900;9.188;2023-07-09T06:35:54;98939.00;;;30.00
35582;BMP180;21687;48.900;9.188;2023-07-09T06:38:21;98941.00;;;30.40
35582;BMP180;21687;48.900;9.188;2023-07-09T06:40:48;98939.00;;;29.80
35582;BMP180;21687;48.900;9.188;2023-07-09T06:43:15;98939.00;;;30.20
35582;BMP180;21687;48.900;9.188;2023-07-09T06:45:56;98942.00;;;30.40
35582;BMP180;21687;48.900;9.188;2023-07-09T06:48:24;98947.00;;;30.20
35582;BMP180;21687;48.900;9.188;2023-07-09T06:50:52;98941.00;;;30.30
35582;BMP180;21687;48.900;9.188;2023-07-09T06:53:19;98941.00;;;30.10
35582;BMP180;21687;48.900;9.188;2023-07-09T06:55:47;98939.00;;;29.90
35582;BMP180;21687;48.900;9.188;2023-07-09T06:58:16;98938.00;;;30.20
35582;BMP180;21687;48.900;9.188;2023-07-09T07:00:43;98944.00;;;30.70
35582;BMP180;21687;48.900;9.188;2023-07-09T07:03:10;98944.00;;;31.20
35582;BMP180;21687;48.900;9.188;2023-07-09T07:05:42;98932.00;;;31.70
35582;BMP180;21687;48.900;9.188;2023-07-09T07:08:08;98948.00;;;32.20
35582;BMP180;21687;48.900;9.188;2023-07-09T07:10:36;98952.00;;;32.30
35582;BMP180;21687;48.900;9.188;2023-07-09T07:13:02;98947.00;;;33.20
35582;BMP180;21687;48.900;9.188;2023-07-09T07:15:29;98948.00;;;33.40
35582;BMP180;21687;48.900;9.188;2023-07-09T07:17:55;98954.00;;;34.10
35582;BMP180;21687;48.900;9.188;2023-07-09T07:20:24;98949.00;;;34.50
35582;BMP180;21687;48.900;9.188;2023-07-09T07:22:51;98946.00;;;33.60
35582;BMP180;21687;48.900;9.188;2023-07-09T07:25:17;98953.00;;;33.00
35582;BMP180;21687;48.900;9.188;2023-07-09T07:27:43;98946.00;;;33.20
35582;BMP180;21687;48.900;9.188;2023-07-09T07:30:10;98951.00;;;32.60
35582;BMP180;21687;48.900;9.188;2023-07-09T07:32:38;98945.00;;;33.40
35582;BMP180;21687;48.900;9.188;2023-07-09T07:35:08;98937.00;;;32.90
35582;BMP180;21687;48.900;9.188;2023-07-09T07:37:35;98940.00;;;33.60
35582;BMP180;21687;48.900;9.188;2023-07-09T07:40:02;98950.00;;;33.50
35582;BMP180;21687;48.900;9.188;2023-07-09T07:42:31;98941.00;;;34.20
35582;BMP180;21687;48.900;9.188;2023-07-09T07:44:57;98942.00;;;33.10
35582;BMP180;21687;48.900;9.188;2023-07-09T07:47:23;98938.00;;;32.70
35582;BMP180;21687;48.900;9.188;2023-07-09T07:49:49;98934.00;;;33.30
35582;BMP180;21687;48.900;9.188;2023-07-09T07:52:16;98932.00;;;34.00
35582;BMP180;21687;48.900;9.188;2023-07-09T07:54:42;98938.00;;;34.10
35582;BMP180;21687;48.900;9.188;2023-07-09T07:57:08;98933.00;;;34.20
35582;BMP180;21687;48.900;9.188;2023-07-09T07:59:36;98941.00;;;34.80
35582;BMP180;21687;48.900;9.188;2023-07-09T08:02:04;98929.00;;;34.80
35582;BMP180;21687;48.900;9.188;2023-07-09T08:04:30;98926.00;;;34.70
35582;BMP180;21687;48.900;9.188;2023-07-09T08:06:56;98926.00;;;35.40
35582;BMP180;21687;48.900;9.188;2023-07-09T08:09:25;98927.00;;;35.40
35582;BMP180;21687;48.900;9.188;2023-07-09T08:11:51;98926.00;;;35.10
35582;BMP180;21687;48.900;9.188;2023-07-09T08:14:18;98932.00;;;34.80
35582;BMP180;21687;48.900;9.188;2023-07-09T08:16:44;98926.00;;;35.00
35582;BMP180;21687;48.900;9.188;2023-07-09T08:19:11;98919.00;;;34.50
35582;BMP180;21687;48.900;9.188;2023-07-09T08:21:37;98923.00;;;34.40
35582;BMP180;21687;48.900;9.188;2023-07-09T08:24:04;98922.00;;;34.20
35582;BMP180;21687;48.900;9.188;2023-07-09T08:26:30;98919.00;;;34.50
35582;BMP180;21687;48.900;9.188;2023-07-09T08:28:57;98914.00;;;34.80
35582;BMP180;21687;48.900;9.188;2023-07-09T08:31:23;98919.00;;;34.90
35582;BMP180;21687;48.900;9.188;2023-07-09T08:33:49;98922.00;;;34.90
35582;BMP180;21687;48.900;9.188;2023-07-09T08:36:16;98916.00;;;35.20
35582;BMP180;21687;48.900;9.188;2023-07-09T08:38:42;98921.00;;;35.00
35582;BMP180;21687;48.900;9.188;2023-07-09T08:49:40;98917.00;;;34.30
35582;BMP180;21687;48.900;9.188;2023-07-09T08:54:50;98927.00;;;34.70
35582;BMP180;21687;48.900;9.188;2023-07-09T08:57:31;98932.00;;;34.70
35582;BMP180;21687;48.900;9.188;2023-07-09T09:00:07;98928.00;;;35.10
35582;BMP180;21687;48.900;9.188;2023-07-09T09:02:43;98925.00;;;35.20
35582;BMP180;21687;48.900;9.188;2023-07-09T09:05:12;98924.00;;;35.20
35582;BMP180;21687;48.900;9.188;2023-07-09T09:07:43;98925.00;;;35.50
35582;BMP180;21687;48.900;9.188;2023-07-09T09:10:14;98926.00;;;35.40
35582;BMP180;21687;48.900;9.188;2023-07-09T09:12:56;98923.00;;;34.80
35582;BMP180;21687;48.900;9.188;2023-07-09T09:15:32;98922.00;;;35.20
35582;BMP180;21687;48.900;9.188;2023-07-09T09:18:21;98923.00;;;35.30
35582;BMP180;21687;48.900;9.188;2023-07-09T09:27:08;98924.00;;;35.40
35582;BMP180;21687;48.900;9.188;2023-07-09T09:29:35;98929.00;;;35.70
35582;BMP180;21687;48.900;9.188;2023-07-09T09:32:27;98926.00;;;35.80
35582;BMP180;21687;48.900;9.188;2023-07-09T09:34:55;98927.00;;;35.80
35582;BMP180;21687;48.900;9.188;2023-07-09T09:37:28;98927.00;;;35.90
35582;BMP180;21687;48.900;9.188;2023-07-09T09:40:04;98927.00;;;36.00
35582;BMP180;21687;48.900;9.188;2023-07-09T09:42:34;98914.00;;;36.20
35582;BMP180;21687;48.900;9.188;2023-07-09T09:45:16;98915.00;;;35.90
35582;BMP180;21687;48.900;9.188;2023-07-09T09:47:44;98925.00;;;35.80
35582;BMP180;21687;48.900;9.188;2023-07-09T09:50:19;98930.00;;;36.00
35582;BMP180;21687;48.900;9.188;2023-07-09T09:52:49;98927.00;;;36.40
35582;BMP180;21687;48.900;9.188;2023-07-09T09:55:24;98926.00;;;36.20
35582;BMP180;21687;48.900;9.188;2023-07-09T09:57:52;98922.00;;;36.30
35582;BMP180;21687;48.900;9.188;2023-07-09T10:00:23;98920.00;;;35.70
35582;BMP180;21687;48.900;9.188;2023-07-09T10:02:56;98918.00;;;35.50
35582;BMP180;21687;48.900;9.188;2023-07-09T10:06:14;98917.00;;;35.20
35582;BMP180;21687;48.900;9.188;2023-07-09T10:14:11;98897.00;;;35.00
35582;BMP180;21687;48.900;9.188;2023-07-09T10:16:45;98895.00;;;35.20
35582;BMP180;21687;48.900;9.188;2023-07-09T10:19:48;98899.00;;;35.20
35582;BMP180;21687;48.900;9.188;2023-07-09T10:22:43;98890.00;;;35.00
35582;BMP180;21687;48.900;9.188;2023-07-09T10:31:17;98887.00;;;35.70
35582;BMP180;21687;48.900;9.188;2023-07-09T10:34:21;98889.00;;;35.60
35582;BMP180;21687;48.900;9.188;2023-07-09T10:39:38;98882.00;;;35.70
35582;BMP180;21687;48.900;9.188;2023-07-09T10:42:13;98882.00;;;35.50
35582;BMP180;21687;48.900;9.188;2023-07-09T10:44:45;98879.00;;;35.60
35582;BMP180;21687;48.900;9.188;2023-07-09T10:47:25;98881.00;;;35.80
35582;BMP180;21687;48.900;9.188;2023-07-09T10:49:53;98875.00;;;35.90
35582;BMP180;21687;48.900;9.188;2023-07-09T10:52:27;98873.00;;;35.80
35582;BMP180;21687;48.900;9.188;2023-07-09T10:55:05;98859.00;;;35.90
35582;BMP180;21687;48.900;9.188;2023-07-09T11:00:39;98864.00;;;35.70
35582;BMP180;21687;48.900;9.188;2023-07-09T11:05:54;98854.00;;;35.80
35582;BMP180;21687;48.900;9.188;2023-07-09T11:08:26;98853.00;;;35.80
35582;BMP180;21687;48.900;9.188;2023-07-09T11:11:01;98853.00;;;36.10
35582;BMP180;21687;48.900;9.188;2023-07-09T11:13:48;98848.00;;;36.40
35582;BMP180;21687;48.900;9.188;2023-07-09T11:16:25;98842.00;;;36.40
35582;BMP180;21687;48.900;9.188;2023-07-09T11:19:00;98841.00;;;35.30
35582;BMP180;21687;48.900;9.188;2023-07-09T11:21:27;98846.00;;;35.10
35582;BMP180;21687;48.900;9.188;2023-07-09T11:23:56;98846.00;;;35.30
35582;BMP180;21687;48.900;9.188;2023-07-09T11:26:33;98856.00;;;35.10
35582;BMP180;21687;48.900;9.188;2023-07-09T11:31:38;98843.00;;;34.90
35582;BMP180;21687;48.900;9.188;2023-07-09T11:36:55;98837.00;;;35.10
35582;BMP180;21687;48.900;9.188;2023-07-09T11:42:29;98838.00;;;35.00
35582;BMP180;21687;48.900;9.188;2023-07-09T11:45:16;98833.00;;;34.80
35582;BMP180;21687;48.900;9.188;2023-07-09T11:47:51;98835.00;;;35.10
35582;BMP180;21687;48.900;9.188;2023-07-09T11:50:24;98830.00;;;35.00
35582;BMP180;21687;48.900;9.188;2023-07-09T11:58:17;98827.00;;;35.50
35582;BMP180;21687;48.900;9.188;2023-07-09T12:01:13;98826.00;;;34.80
35582;BMP180;21687;48.900;9.188;2023-07-09T12:03:42;98817.00;;;34.90
35582;BMP180;21687;48.900;9.188;2023-07-09T12:06:28;98823.00;;;35.20
35582;BMP180;21687;48.900;9.188;2023-07-09T12:08:56;98823.00;;;35.20
35582;BMP180;21687;48.900;9.188;2023-07-09T12:11:25;98820.00;;;35.10
35582;BMP180;21687;48.900;9.188;2023-07-09T12:13:53;98820.00;;;35.30
35582;BMP180;21687;48.900;9.188;2023-07-09T12:16:27;98819.00;;;35.20
35582;BMP180;21687;48.900;9.188;2023-07-09T12:18:54;98806.00;;;35.30
35582;BMP180;21687;48.900;9.188;2023-07-09T12:21:21;98813.00;;;35.40
35582;BMP180;21687;48.900;9.188;2023-07-09T12:23:49;98814.00;;;35.40
35582;BMP180;21687;48.900;9.188;2023-07-09T12:26:18;98800.00;;;35.20
35582;BMP180;21687;48.900;9.188;2023-07-09T12:28:52;98804.00;;;35.30
35582;BMP180;21687;48.900;9.188;2023-07-09T12:31:25;98810.00;;;35.30
35582;BMP180;21687;48.900;9.188;2023-07-09T12:33:54;98787.00;;;35.00
35582;BMP180;21687;48.900;9.188;2023-07-09T12:36:22;98792.00;;;34.70
35582;BMP180;21687;48.900;9.188;2023-07-09T12:38:51;98792.00;;;34.80
35582;BMP180;21687;48.900;9.188;2023-07-09T12:43:55;98776.00;;;35.40
35582;BMP180;21687;48.900;9.188;2023-07-09T12:46:22;98771.00;;;35.90
35582;BMP180;21687;48.900;9.188;2023-07-09T12:48:49;98779.00;;;35.90
35582;BMP180;21687;48.900;9.188;2023-07-09T12:51:28;98769.00;;;36.30
35582;BMP180;21687;48.900;9.188;2023-07-09T12:54:03;98773.00;;;36.30
35582;BMP180;21687;48.900;9.188;2023-07-09T12:56:36;98769.00;;;36.40
35582;BMP180;21687;48.900;9.188;2023-07-09T12:59:17;98771.00;;;36.50
35582;BMP180;21687;48.900;9.188;2023-07-09T13:01:49;98772.00;;;36.50
35582;BMP180;21687;48.900;9.188;2023-07-09T13:04:16;98760.00;;;36.40
35582;BMP180;21687;48.900;9.188;2023-07-09T13:06:44;98763.00;;;36.50
35582;BMP180;21687;48.900;9.188;2023-07-09T13:09:20;98766.00;;;36.50
35582;BMP180;21687;48.900;9.188;2023-07-09T13:11:47;98755.00;;;36.30
35582;BMP180;21687;48.900;9.188;2023-07-09T13:14:19;98743.00;;;36.30
35582;BMP180;21687;48.900;9.188;2023-07-09T13:16:46;98744.00;;;36.30
35582;BMP180;21687;48.900;9.188;2023-07-09T13:19:13;98735.00;;;36.20
35582;BMP180;21687;48.900;9.188;2023-07-09T13:21:40;98735.00;;;36.20
35582;BMP180;21687;48.900;9.188;2023-07-09T13:24:39;98732.00;;;36.30
35582;BMP180;21687;48.900;9.188;2023-07-09T13:27:07;98730.00;;;36.60
35582;BMP180;21687;48.900;9.188;2023-07-09T13:29:34;98729.00;;;36.80
35582;BMP180;21687;48.900;9.188;2023-07-09T13:32:01;98726.00;;;36.90
35582;BMP180;21687;48.900;9.188;2023-07-09T13:34:29;98721.00;;;36.80
35582;BMP180;21687;48.900;9.188;2023-07-09T13:36:59;98726.00;;;36.50
35582;BMP180;21687;48.900;9.188;2023-07-09T13:39:26;98723.00;;;36.50
35582;BMP180;21687;48.900;9.188;2023-07-09T13:41:53;98731.00;;;36.30
35582;BMP180;21687;48.900;9.188;2023-07-09T13:44:22;98723.00;;;36.50
35582;BMP180;21687;48.900;9.188;2023-07-09T13:46:49;98725.00;;;36.80
35582;BMP180;21687;48.900;9.188;2023-07-09T13:49:19;98718.00;;;36.80
35582;BMP180;21687;48.900;9.188;2023-07-09T13:51:48;98722.00;;;36.90
35582;BMP180;21687;48.900;9.188;2023-07-09T13:54:19;98719.00;;;37.10
35582;BMP180;21687;48.900;9.188;2023-07-09T13:56:46;98722.00;;;37.20
35582;BMP180;21687;48.900;9.188;2023-07-09T13:59:19;98714.00;;;37.20
35582;BMP180;21687;48.900;9.188;2023-07-09T14:01:46;98715.00;;;37.10
35582;BMP180;21687;48.900;9.188;2023-07-09T14:04:15;98710.00;;;36.90
35582;BMP180;21687;48.900;9.188;2023-07-09T14:06:43;98715.00;;;36.80
35582;BMP180;21687;48.900;9.188;2023-07-09T14:09:10;98713.00;;;36.60
35582;BMP180;21687;48.900;9.188;2023-07-09T14:11:48;98707.00;;;36.40
35582;BMP180;21687;48.900;9.188;2023-07-09T14:14:24;98708.00;;;36.20
35582;BMP180;21687;48.900;9.188;2023-07-09T14:16:51;98696.00;;;36.10
35582;BMP180;21687;48.900;9.188;2023-07-09T14:19:20;98696.00;;;36.00
35582;BMP180;21687;48.900;9.188;2023-07-09T14:21:48;98693.00;;;35.80
35582;BMP180;21687;48.900;9.188;2023-07-09T14:24:23;98693.00;;;35.70
35582;BMP180;21687;48.900;9.188;2023-07-09T14:26:55;98689.00;;;35.70
35582;BMP180;21687;48.900;9.188;2023-07-09T14:29:22;98686.00;;;35.60
35582;BMP180;21687;48.900;9.188;2023-07-09T14:31:50;98679.00;;;35.30
35582;BMP180;21687;48.900;9.188;2023-07-09T14:36:53;98667.00;;;35.60
35582;BMP180;21687;48.900;9.188;2023-07-09T14:39:20;98677.00;;;35.70
35582;BMP180;21687;48.900;9.188;2023-07-09T14:41:47;98674.00;;;35.80
35582;BMP180;21687;48.900;9.188;2023-07-09T14:44:27;98671.00;;;35.90
35582;BMP180;21687;48.900;9.188;2023-07-09T14:46:55;98673.00;;;36.00
35582;BMP180;21687;48.900;9.188;2023-07-09T14:49:22;98674.00;;;35.90
35582;BMP180;21687;48.900;9.188;2023-07-09T14:51:50;98674.00;;;36.00
35582;BMP180;21687;48.900;9.188;2023-07-09T14:54:29;98671.00;;;35.90
35582;BMP180;21687;48.900;9.188;2023-07-09T14:56:58;98672.00;;;35.90
35582;BMP180;21687;48.900;9.188;2023-07-09T14:59:25;98669.00;;;35.90
35582;BMP180;21687;48.900;9.188;2023-07-09T15:01:54;98666.00;;;36.00
35582;BMP180;21687;48.900;9.188;2023-07-09T15:04:34;98662.00;;;36.30
35582;BMP180;21687;48.900;9.188;2023-07-09T15:07:00;98665.00;;;36.40
35582;BMP180;21687;48.900;9.188;2023-07-09T15:09:28;98661.00;;;36.70
35582;BMP180;21687;48.900;9.188;2023-07-09T15:11:56;98653.00;;;36.40
35582;BMP180;21687;48.900;9.188;2023-07-09T15:14:24;98643.00;;;36.40
35582;BMP180;21687;48.900;9.188;2023-07-09T15:16:52;98655.00;;;36.40
35582;BMP180;21687;48.900;9.188;2023-07-09T15:19:21;98652.00;;;36.60
35582;BMP180;21687;48.900;9.188;2023-07-09T15:21:49;98653.00;;;36.30
35582;BMP180;21687;48.900;9.188;2023-07-09T15:24:30;98653.00;;;36.20
35582;BMP180;21687;48.900;9.188;2023-07-09T15:26:57;98656.00;;;35.90
35582;BMP180;21687;48.900;9.188;2023-07-09T15:29:27;98646.00;;;35.90